Mission Valley, Texas
Current Conditions -  °F | °C
As of 9:08 PM on Saturday 22 Nov 2014 (Local Time) from KVCT Reporting Station
Few Clouds Few Clouds  
Wind Chill: 71°   Ceiling: Unl
Heat Index: 71°   Visibility: 10mi
Dew Point: 61°   Wind: 21mph
Humidity: 70%   Direction: 160°SSE
Pressure: 29.64"   Gusts: 25mph
Location:  28.7094°N, 97.0351°W
Report Text: KVCT 230308Z 16018G22KT 10SM FEW100 22/16 A2964 RMK AO2 WSHFT 0248 LTG DSNT E-S PRESFR T02170161
Loading
Personal Weather Stations






























Interactive Weather Map New forecast layout! Learn more

10-Day Weather Forecast

Advertisements
Track Severe Weather on mobile